createdAt,value
2022-11-05T00:02:01.568Z,97811.86
2022-11-05T00:07:22.911Z,97822.16
2022-11-05T00:12:44.059Z,97823.27
2022-11-05T00:17:47.539Z,97834.54
2022-11-05T00:23:08.912Z,97835.95
2022-11-05T00:28:12.476Z,97842.21
2022-11-05T00:33:15.940Z,97853.74
2022-11-05T00:38:19.360Z,97863.30
2022-11-05T00:43:40.538Z,97864.40
2022-11-05T00:49:01.807Z,97866.55
2022-11-05T00:54:05.274Z,97860.34
2022-11-05T00:59:08.727Z,97867.53
2022-11-05T01:04:12.177Z,97873.75
2022-11-05T01:09:15.612Z,97867.27
2022-11-05T01:14:19.221Z,97858.63
2022-11-05T01:19:22.722Z,97863.83
2022-11-05T01:24:26.154Z,97874.02
2022-11-05T01:29:29.653Z,97880.58
2022-11-05T01:34:33.072Z,97884.52
2022-11-05T01:39:36.608Z,97885.45
2022-11-05T01:44:40.039Z,97896.93
2022-11-05T01:49:43.511Z,97906.49
2022-11-05T01:54:47.177Z,97913.48
2022-11-05T01:59:50.605Z,97920.05
2022-11-05T02:04:54.489Z,97928.58
2022-11-05T02:09:57.935Z,97935.23
2022-11-05T02:15:01.387Z,97936.80
2022-11-05T02:20:04.821Z,97948.21
2022-11-05T02:25:08.253Z,97954.29
2022-11-05T02:30:11.797Z,97960.70
2022-11-05T02:35:15.315Z,97963.17
2022-11-05T02:40:19.201Z,97962.95
2022-11-05T02:45:22.651Z,97968.87
2022-11-05T02:50:26.077Z,97976.76
2022-11-05T02:55:29.500Z,97977.10
2022-11-05T03:00:33.016Z,97985.73
2022-11-05T03:05:36.445Z,97991.84
2022-11-05T03:10:39.883Z,97993.48
2022-11-05T03:15:43.324Z,98005.05
2022-11-05T03:20:46.777Z,98007.45
2022-11-05T03:25:50.255Z,98013.73
2022-11-05T03:30:53.682Z,98016.62
2022-11-05T03:35:57.120Z,98029.61
2022-11-05T03:41:00.571Z,98025.42
2022-11-05T03:46:04.009Z,98022.80
2022-11-05T03:51:07.425Z,98042.20
2022-11-05T03:56:10.865Z,98043.02
2022-11-05T04:01:14.405Z,98045.31
2022-11-05T04:06:35.208Z,98040.54
2022-11-05T04:11:56.466Z,98056.29
2022-11-05T04:17:09.812Z,98063.31
2022-11-05T04:22:31.016Z,98065.02
2022-11-05T04:27:34.449Z,98062.36
2022-11-05T04:32:37.948Z,98067.73
2022-11-05T04:37:41.379Z,98069.55
2022-11-05T04:42:44.828Z,98067.91
2022-11-05T04:47:48.265Z,98069.49
2022-11-05T04:52:51.824Z,98074.91
2022-11-05T04:57:55.305Z,98081.41
2022-11-05T05:02:58.808Z,98077.13
2022-11-05T05:08:02.313Z,98085.67
2022-11-05T05:13:05.753Z,98087.27
2022-11-05T05:18:09.222Z,98095.48
2022-11-05T05:23:12.995Z,98096.91
2022-11-05T05:28:16.664Z,98106.39
2022-11-05T05:33:20.090Z,98120.79
2022-11-05T05:38:23.547Z,98115.91
2022-11-05T05:43:27.049Z,98110.79
2022-11-05T05:48:30.496Z,98128.64
2022-11-05T05:53:34.062Z,98138.30
2022-11-05T05:58:37.565Z,98141.60
2022-11-05T06:03:41.022Z,98156.88
2022-11-05T06:08:44.476Z,98159.90
2022-11-05T06:13:48.001Z,98162.42
2022-11-05T06:18:51.515Z,98171.23
2022-11-05T06:23:55.015Z,98178.61
2022-11-05T06:28:58.478Z,98192.62
2022-11-05T06:34:02.732Z,98213.17
2022-11-05T06:39:06.163Z,98225.17
2022-11-05T06:44:09.592Z,98228.39
2022-11-05T06:49:13.116Z,98239.47
2022-11-05T06:54:16.567Z,98262.05
2022-11-05T06:59:20.081Z,98270.21
2022-11-05T07:04:23.560Z,98272.86
2022-11-05T07:09:26.988Z,98278.48
2022-11-05T07:14:30.422Z,98285.67
2022-11-05T07:19:33.864Z,98290.57
2022-11-05T07:24:37.300Z,98297.33
2022-11-05T07:29:40.803Z,98304.08
2022-11-05T07:34:44.238Z,98307.75
2022-11-05T07:39:47.824Z,98317.50
2022-11-05T07:44:51.284Z,98320.05
2022-11-05T07:49:54.708Z,98320.55
2022-11-05T07:55:00.322Z,98326.98
2022-11-05T08:00:03.885Z,98331.67
2022-11-05T08:05:07.729Z,98330.16
2022-11-05T08:10:11.167Z,98332.80
2022-11-05T08:15:14.649Z,98328.99
2022-11-05T08:20:18.184Z,98333.14
2022-11-05T08:25:21.622Z,98330.11
2022-11-05T08:30:25.110Z,98331.85
2022-11-05T08:35:28.634Z,98336.55
2022-11-05T08:40:32.073Z,98348.56
2022-11-05T08:45:36.510Z,98356.42
2022-11-05T08:50:41.518Z,98364.61
2022-11-05T08:55:46.472Z,98366.63
2022-11-05T09:00:50.120Z,98372.90
2022-11-05T09:05:53.636Z,98383.51
2022-11-05T09:10:57.234Z,98381.65
2022-11-05T09:16:00.741Z,98383.27
2022-11-05T09:21:04.177Z,98381.46
2022-11-05T09:26:07.720Z,98380.80
2022-11-05T09:31:11.153Z,98387.66
2022-11-05T09:36:14.745Z,98391.52
2022-11-05T09:41:18.257Z,98393.16
2022-11-05T09:46:21.682Z,98396.91
2022-11-05T09:51:25.142Z,98402.73
2022-11-05T09:56:28.651Z,98406.50
2022-11-05T10:01:32.214Z,98409.99
2022-11-05T10:06:35.853Z,98410.30
2022-11-05T10:11:43.877Z,98420.02
2022-11-05T10:16:47.392Z,98425.57
2022-11-05T10:22:07.235Z,98424.35
2022-11-05T10:27:10.970Z,98416.73
2022-11-05T10:32:14.398Z,98425.70
2022-11-05T10:37:17.857Z,98436.63
2022-11-05T10:42:21.370Z,98438.60
2022-11-05T10:47:24.802Z,98438.20
2022-11-05T10:52:29.201Z,98437.55
2022-11-05T10:57:32.679Z,98436.82
2022-11-05T11:02:36.218Z,98436.57
2022-11-05T11:07:39.716Z,98443.14
2022-11-05T11:12:43.269Z,98457.23
2022-11-05T11:17:46.788Z,98462.99
2022-11-05T11:22:50.484Z,98456.20
2022-11-05T11:27:54.145Z,98450.98
2022-11-05T11:32:57.615Z,98456.45
2022-11-05T11:38:02.200Z,98462.23
2022-11-05T11:43:05.749Z,98472.92
2022-11-05T11:48:09.225Z,98477.32
2022-11-05T11:53:13.092Z,98469.34
2022-11-05T11:58:16.779Z,98472.95
2022-11-05T12:03:20.778Z,98478.84
2022-11-05T12:08:24.362Z,98476.45
2022-11-05T12:13:27.821Z,98481.97
2022-11-05T12:18:31.275Z,98487.53
2022-11-05T12:23:34.780Z,98503.20
2022-11-05T12:28:57.788Z,98503.63
2022-11-05T12:34:01.729Z,98506.34
2022-11-05T12:39:05.488Z,98511.88
2022-11-05T12:44:08.960Z,98509.67
2022-11-05T12:49:12.433Z,98518.10
2022-11-05T12:54:15.860Z,98524.91
2022-11-05T12:59:19.624Z,98526.88
2022-11-05T13:04:23.066Z,98526.95
2022-11-05T13:09:26.569Z,98532.14
2022-11-05T13:14:30.100Z,98535.33
2022-11-05T13:19:33.552Z,98541.27
2022-11-05T13:24:36.993Z,98554.88
2022-11-05T13:29:40.461Z,98570.13
2022-11-05T13:34:43.922Z,98569.36
2022-11-05T13:39:47.497Z,98581.77
2022-11-05T13:44:51.003Z,98591.02
2022-11-05T13:49:54.518Z,98593.73
2022-11-05T13:54:57.996Z,98592.04
2022-11-05T14:00:01.519Z,98591.73
2022-11-05T14:05:05.004Z,98594.77
2022-11-05T14:10:08.440Z,98592.37
2022-11-05T14:15:11.896Z,98600.00
2022-11-05T14:20:15.339Z,98606.17
2022-11-05T14:25:18.777Z,98626.55
2022-11-05T14:30:22.594Z,98643.36
2022-11-05T14:35:26.512Z,98656.20
2022-11-05T14:40:29.967Z,98663.30
2022-11-05T14:45:33.476Z,98664.68
2022-11-05T14:50:36.971Z,98662.08
2022-11-05T14:55:40.432Z,98675.09
2022-11-05T15:00:43.880Z,98679.42
2022-11-05T15:05:47.413Z,98678.40
2022-11-05T15:10:50.852Z,98686.90
2022-11-05T15:15:54.349Z,98692.65
2022-11-05T15:20:57.774Z,98703.13
2022-11-05T15:26:01.284Z,98706.45
2022-11-05T15:31:04.864Z,98713.52
2022-11-05T15:36:08.314Z,98718.59
2022-11-05T15:41:11.820Z,98724.17
2022-11-05T15:46:15.245Z,98728.73
2022-11-05T15:51:18.826Z,98735.72
2022-11-05T15:56:22.328Z,98741.89
2022-11-05T16:01:27.943Z,98744.87
2022-11-05T16:06:31.537Z,98742.40
2022-11-05T16:11:34.985Z,98750.73
2022-11-05T16:16:38.521Z,98750.27
2022-11-05T16:21:42.019Z,98756.64
2022-11-05T16:27:02.196Z,98757.73
2022-11-05T16:32:06.629Z,98759.41
2022-11-05T16:37:10.190Z,98766.50
2022-11-05T16:42:13.708Z,98770.41
2022-11-05T16:47:17.148Z,98784.58
2022-11-05T16:52:20.643Z,98798.34
2022-11-05T16:57:24.153Z,98802.97
2022-11-05T17:02:30.102Z,98806.73
2022-11-05T17:07:37.183Z,98812.05
2022-11-05T17:12:44.570Z,98813.04
2022-11-05T17:17:48.124Z,98813.51
2022-11-05T17:22:51.593Z,98814.52
2022-11-05T17:27:55.080Z,98822.25
2022-11-05T17:32:58.740Z,98825.57
2022-11-05T17:38:02.236Z,98822.39
2022-11-05T17:43:05.703Z,98818.76
2022-11-05T17:48:10.035Z,98817.85
2022-11-05T17:53:13.901Z,98824.75
2022-11-05T17:58:17.644Z,98830.10
2022-11-05T18:03:21.063Z,98835.30
2022-11-05T18:08:24.681Z,98840.06
2022-11-05T18:13:28.179Z,98848.89
2022-11-05T18:18:31.769Z,98854.76
2022-11-05T18:23:35.209Z,98854.39
2022-11-05T18:28:38.668Z,98855.98
2022-11-05T18:33:42.529Z,98867.99
2022-11-05T18:38:54.450Z,98876.00
2022-11-05T18:43:58.065Z,98864.56
2022-11-05T18:49:01.556Z,98869.34
2022-11-05T18:54:05.162Z,98877.83
2022-11-05T18:59:35.193Z,98884.08
2022-11-05T19:04:32.161Z,98897.48
2022-11-05T19:09:35.613Z,98898.55
2022-11-05T19:14:39.087Z,98898.27
2022-11-05T19:19:42.616Z,98908.40
2022-11-05T19:24:46.098Z,98912.91
2022-11-05T19:29:49.562Z,98915.88
2022-11-05T19:34:53.033Z,98920.91
2022-11-05T19:39:56.479Z,98927.64
2022-11-05T19:45:16.755Z,98936.30
2022-11-05T19:50:23.743Z,98943.31
2022-11-05T19:55:27.187Z,98948.19
2022-11-05T20:00:30.693Z,98956.77
2022-11-05T20:05:34.238Z,98962.80
2022-11-05T20:10:37.730Z,98967.77
2022-11-05T20:15:41.215Z,98975.77
2022-11-05T20:20:44.732Z,98981.36
2022-11-05T20:25:48.158Z,98987.55
2022-11-05T20:30:51.667Z,98984.77
2022-11-05T20:35:55.145Z,98986.23
2022-11-05T20:40:58.794Z,98989.97
2022-11-05T20:46:02.233Z,98993.60
2022-11-05T20:51:05.693Z,98995.11
2022-11-05T20:56:09.543Z,99010.11
2022-11-05T21:01:13.039Z,99014.05
2022-11-05T21:06:16.666Z,99012.60
2022-11-05T21:11:20.112Z,99013.37
2022-11-05T21:16:23.541Z,99026.29
2022-11-05T21:21:27.345Z,99026.63
2022-11-05T21:26:31.701Z,99024.93
2022-11-05T21:31:35.224Z,99017.90
2022-11-05T21:36:38.673Z,99018.77
2022-11-05T21:41:42.645Z,99024.75
2022-11-05T21:46:46.173Z,99023.34
2022-11-05T21:52:18.783Z,99024.38
2022-11-05T21:57:39.662Z,99026.51
2022-11-05T22:02:43.229Z,99023.33
2022-11-05T22:07:46.794Z,99017.34
2022-11-05T22:12:50.269Z,99021.88
2022-11-05T22:17:53.706Z,99028.74
2022-11-05T22:22:57.221Z,99033.63
2022-11-05T22:28:00.666Z,99024.59
2022-11-05T22:33:04.194Z,99035.56
2022-11-05T22:38:07.633Z,99036.61
2022-11-05T22:43:11.113Z,99038.95
2022-11-05T22:48:14.957Z,99033.42
2022-11-05T22:53:18.653Z,99028.75
2022-11-05T22:58:22.083Z,99035.13
2022-11-05T23:03:25.756Z,99034.63
2022-11-05T23:08:46.648Z,99032.70
2022-11-05T23:13:50.106Z,99036.10
2022-11-05T23:19:07.434Z,99036.85
2022-11-05T23:24:11.304Z,99040.73
2022-11-05T23:29:14.801Z,99038.82
2022-11-05T23:34:18.361Z,99040.51
2022-11-05T23:39:21.844Z,99050.23
2022-11-05T23:44:43.047Z,99054.55
2022-11-05T23:49:46.476Z,99054.31
2022-11-05T23:54:49.892Z,99058.19
2022-11-05T23:59:53.321Z,99058.71
